sensor_id;sensor_type;location;lat;lon;timestamp;P1;durP1;ratioP1;P2;durP2;ratioP2
13085;SDS011;6609;49.882;8.664;2022-10-16T00:02:13;1.50;;;1.30;;
13085;SDS011;6609;49.882;8.664;2022-10-16T00:04:40;2.33;;;1.30;;
13085;SDS011;6609;49.882;8.664;2022-10-16T00:07:07;1.50;;;1.23;;
13085;SDS011;6609;49.882;8.664;2022-10-16T00:09:35;2.97;;;1.37;;
13085;SDS011;6609;49.882;8.664;2022-10-16T00:12:02;1.90;;;1.30;;
13085;SDS011;6609;49.882;8.664;2022-10-16T00:14:31;3.33;;;1.47;;
13085;SDS011;6609;49.882;8.664;2022-10-16T00:16:58;1.87;;;1.27;;
13085;SDS011;6609;49.882;8.664;2022-10-16T00:19:25;3.17;;;1.23;;
13085;SDS011;6609;49.882;8.664;2022-10-16T00:21:52;1.57;;;1.40;;
13085;SDS011;6609;49.882;8.664;2022-10-16T00:24:19;2.57;;;1.40;;
13085;SDS011;6609;49.882;8.664;2022-10-16T00:26:48;3.43;;;1.53;;
13085;SDS011;6609;49.882;8.664;2022-10-16T00:29:16;3.00;;;1.13;;
13085;SDS011;6609;49.882;8.664;2022-10-16T00:31:42;3.03;;;1.60;;
13085;SDS011;6609;49.882;8.664;2022-10-16T00:34:09;1.57;;;1.30;;
13085;SDS011;6609;49.882;8.664;2022-10-16T00:36:36;2.40;;;1.10;;
13085;SDS011;6609;49.882;8.664;2022-10-16T00:39:03;3.50;;;1.33;;
13085;SDS011;6609;49.882;8.664;2022-10-16T00:41:30;1.37;;;0.90;;
13085;SDS011;6609;49.882;8.664;2022-10-16T00:43:59;2.50;;;1.37;;
13085;SDS011;6609;49.882;8.664;2022-10-16T00:46:27;2.23;;;1.03;;
13085;SDS011;6609;49.882;8.664;2022-10-16T00:48:57;1.80;;;0.90;;
13085;SDS011;6609;49.882;8.664;2022-10-16T00:51:28;1.60;;;1.10;;
13085;SDS011;6609;49.882;8.664;2022-10-16T00:53:58;2.13;;;1.10;;
13085;SDS011;6609;49.882;8.664;2022-10-16T00:56:25;2.70;;;1.03;;
13085;SDS011;6609;49.882;8.664;2022-10-16T00:58:52;4.60;;;0.90;;
13085;SDS011;6609;49.882;8.664;2022-10-16T01:01:21;3.57;;;1.23;;
13085;SDS011;6609;49.882;8.664;2022-10-16T01:03:48;0.77;;;0.63;;
13085;SDS011;6609;49.882;8.664;2022-10-16T01:06:18;1.97;;;0.80;;
13085;SDS011;6609;49.882;8.664;2022-10-16T01:08:53;1.53;;;0.70;;
13085;SDS011;6609;49.882;8.664;2022-10-16T01:11:36;2.90;;;0.83;;
13085;SDS011;6609;49.882;8.664;2022-10-16T01:14:16;2.20;;;0.87;;
13085;SDS011;6609;49.882;8.664;2022-10-16T01:16:55;1.13;;;1.00;;
13085;SDS011;6609;49.882;8.664;2022-10-16T01:19:38;1.83;;;0.90;;
13085;SDS011;6609;49.882;8.664;2022-10-16T01:22:21;1.87;;;0.60;;
13085;SDS011;6609;49.882;8.664;2022-10-16T01:24:51;3.30;;;0.67;;
13085;SDS011;6609;49.882;8.664;2022-10-16T01:27:23;1.23;;;0.70;;
13085;SDS011;6609;49.882;8.664;2022-10-16T01:29:53;1.50;;;0.70;;
13085;SDS011;6609;49.882;8.664;2022-10-16T01:32:25;1.40;;;0.50;;
13085;SDS011;6609;49.882;8.664;2022-10-16T01:34:58;0.97;;;0.90;;
13085;SDS011;6609;49.882;8.664;2022-10-16T01:37:31;1.07;;;0.43;;
13085;SDS011;6609;49.882;8.664;2022-10-16T01:40:02;2.40;;;0.60;;
13085;SDS011;6609;49.882;8.664;2022-10-16T01:42:34;2.13;;;0.53;;
13085;SDS011;6609;49.882;8.664;2022-10-16T01:45:04;0.50;;;0.50;;
13085;SDS011;6609;49.882;8.664;2022-10-16T01:47:32;1.77;;;0.67;;
13085;SDS011;6609;49.882;8.664;2022-10-16T01:50:01;1.43;;;0.90;;
13085;SDS011;6609;49.882;8.664;2022-10-16T01:52:30;1.50;;;0.60;;
13085;SDS011;6609;49.882;8.664;2022-10-16T01:55:00;1.43;;;0.57;;
13085;SDS011;6609;49.882;8.664;2022-10-16T01:57:29;2.97;;;0.70;;
13085;SDS011;6609;49.882;8.664;2022-10-16T02:00:00;1.10;;;0.67;;
13085;SDS011;6609;49.882;8.664;2022-10-16T02:02:31;0.97;;;0.50;;
13085;SDS011;6609;49.882;8.664;2022-10-16T02:04:59;1.73;;;0.73;;
13085;SDS011;6609;49.882;8.664;2022-10-16T02:07:30;1.20;;;0.70;;
13085;SDS011;6609;49.882;8.664;2022-10-16T02:09:57;2.13;;;0.67;;
13085;SDS011;6609;49.882;8.664;2022-10-16T02:12:26;5.17;;;1.00;;
13085;SDS011;6609;49.882;8.664;2022-10-16T02:14:57;1.17;;;0.90;;
13085;SDS011;6609;49.882;8.664;2022-10-16T02:17:25;2.23;;;0.93;;
13085;SDS011;6609;49.882;8.664;2022-10-16T02:19:53;2.67;;;0.90;;
13085;SDS011;6609;49.882;8.664;2022-10-16T02:22:24;7.00;;;1.00;;
13085;SDS011;6609;49.882;8.664;2022-10-16T02:24:55;1.00;;;0.90;;
13085;SDS011;6609;49.882;8.664;2022-10-16T02:27:25;3.00;;;0.87;;
13085;SDS011;6609;49.882;8.664;2022-10-16T02:29:58;3.10;;;0.70;;
13085;SDS011;6609;49.882;8.664;2022-10-16T02:32:34;1.83;;;1.10;;
13085;SDS011;6609;49.882;8.664;2022-10-16T02:35:04;1.20;;;0.90;;
13085;SDS011;6609;49.882;8.664;2022-10-16T02:37:32;1.63;;;1.00;;
13085;SDS011;6609;49.882;8.664;2022-10-16T02:39:59;2.00;;;1.30;;
13085;SDS011;6609;49.882;8.664;2022-10-16T02:42:28;3.27;;;1.30;;
13085;SDS011;6609;49.882;8.664;2022-10-16T02:44:55;2.63;;;1.40;;
13085;SDS011;6609;49.882;8.664;2022-10-16T02:47:22;5.50;;;1.43;;
13085;SDS011;6609;49.882;8.664;2022-10-16T02:49:50;2.40;;;1.43;;
13085;SDS011;6609;49.882;8.664;2022-10-16T02:52:17;1.13;;;1.00;;
13085;SDS011;6609;49.882;8.664;2022-10-16T02:54:44;2.47;;;1.50;;
13085;SDS011;6609;49.882;8.664;2022-10-16T02:57:11;2.63;;;1.30;;
13085;SDS011;6609;49.882;8.664;2022-10-16T02:59:37;2.60;;;1.50;;
13085;SDS011;6609;49.882;8.664;2022-10-16T03:02:04;5.47;;;2.17;;
13085;SDS011;6609;49.882;8.664;2022-10-16T03:04:31;3.33;;;2.27;;
13085;SDS011;6609;49.882;8.664;2022-10-16T03:06:59;3.33;;;1.70;;
13085;SDS011;6609;49.882;8.664;2022-10-16T03:09:26;4.23;;;2.40;;
13085;SDS011;6609;49.882;8.664;2022-10-16T03:11:53;5.40;;;2.23;;
13085;SDS011;6609;49.882;8.664;2022-10-16T03:14:19;4.07;;;2.53;;
13085;SDS011;6609;49.882;8.664;2022-10-16T03:16:46;5.77;;;2.90;;
13085;SDS011;6609;49.882;8.664;2022-10-16T03:19:15;4.37;;;3.10;;
13085;SDS011;6609;49.882;8.664;2022-10-16T03:21:42;5.67;;;3.43;;
13085;SDS011;6609;49.882;8.664;2022-10-16T03:24:10;2.97;;;2.27;;
13085;SDS011;6609;49.882;8.664;2022-10-16T03:26:37;5.13;;;3.17;;
13085;SDS011;6609;49.882;8.664;2022-10-16T03:29:04;4.37;;;2.73;;
13085;SDS011;6609;49.882;8.664;2022-10-16T03:31:31;4.37;;;2.50;;
13085;SDS011;6609;49.882;8.664;2022-10-16T03:33:58;4.13;;;2.10;;
13085;SDS011;6609;49.882;8.664;2022-10-16T03:36:25;4.03;;;1.93;;
13085;SDS011;6609;49.882;8.664;2022-10-16T03:38:52;3.60;;;2.17;;
13085;SDS011;6609;49.882;8.664;2022-10-16T03:41:20;3.20;;;2.33;;
13085;SDS011;6609;49.882;8.664;2022-10-16T03:43:47;4.13;;;2.50;;
13085;SDS011;6609;49.882;8.664;2022-10-16T03:46:14;4.10;;;2.77;;
13085;SDS011;6609;49.882;8.664;2022-10-16T03:48:40;4.93;;;2.53;;
13085;SDS011;6609;49.882;8.664;2022-10-16T03:51:07;5.23;;;2.60;;
13085;SDS011;6609;49.882;8.664;2022-10-16T03:53:34;6.03;;;3.33;;
13085;SDS011;6609;49.882;8.664;2022-10-16T03:56:01;6.40;;;2.70;;
13085;SDS011;6609;49.882;8.664;2022-10-16T03:58:29;4.33;;;3.27;;
13085;SDS011;6609;49.882;8.664;2022-10-16T04:00:56;7.80;;;3.07;;
13085;SDS011;6609;49.882;8.664;2022-10-16T04:03:22;5.23;;;3.10;;
13085;SDS011;6609;49.882;8.664;2022-10-16T04:05:49;11.10;;;4.27;;
13085;SDS011;6609;49.882;8.664;2022-10-16T04:08:16;5.57;;;3.10;;
13085;SDS011;6609;49.882;8.664;2022-10-16T04:10:43;5.20;;;3.60;;
13085;SDS011;6609;49.882;8.664;2022-10-16T04:13:11;8.47;;;3.23;;
13085;SDS011;6609;49.882;8.664;2022-10-16T04:15:39;7.13;;;3.77;;
13085;SDS011;6609;49.882;8.664;2022-10-16T04:18:06;4.47;;;2.67;;
13085;SDS011;6609;49.882;8.664;2022-10-16T04:20:33;7.00;;;3.13;;
13085;SDS011;6609;49.882;8.664;2022-10-16T04:23:00;3.00;;;2.63;;
13085;SDS011;6609;49.882;8.664;2022-10-16T04:25:27;3.47;;;2.90;;
13085;SDS011;6609;49.882;8.664;2022-10-16T04:27:54;8.13;;;2.97;;
13085;SDS011;6609;49.882;8.664;2022-10-16T04:30:21;9.13;;;3.00;;
13085;SDS011;6609;49.882;8.664;2022-10-16T04:32:50;4.77;;;2.80;;
13085;SDS011;6609;49.882;8.664;2022-10-16T04:35:17;3.43;;;3.13;;
13085;SDS011;6609;49.882;8.664;2022-10-16T04:37:44;8.00;;;3.20;;
13085;SDS011;6609;49.882;8.664;2022-10-16T04:40:11;6.23;;;2.73;;
13085;SDS011;6609;49.882;8.664;2022-10-16T04:42:38;7.83;;;3.43;;
13085;SDS011;6609;49.882;8.664;2022-10-16T04:45:06;6.20;;;3.13;;
13085;SDS011;6609;49.882;8.664;2022-10-16T04:47:33;6.87;;;3.23;;
13085;SDS011;6609;49.882;8.664;2022-10-16T04:50:01;4.53;;;3.00;;
13085;SDS011;6609;49.882;8.664;2022-10-16T04:52:28;6.70;;;3.27;;
13085;SDS011;6609;49.882;8.664;2022-10-16T04:54:57;3.87;;;2.60;;
13085;SDS011;6609;49.882;8.664;2022-10-16T04:57:26;5.23;;;2.77;;
13085;SDS011;6609;49.882;8.664;2022-10-16T04:59:53;4.00;;;2.97;;
13085;SDS011;6609;49.882;8.664;2022-10-16T05:02:20;5.50;;;3.13;;
13085;SDS011;6609;49.882;8.664;2022-10-16T05:04:47;6.40;;;3.20;;
13085;SDS011;6609;49.882;8.664;2022-10-16T05:07:15;8.43;;;3.40;;
13085;SDS011;6609;49.882;8.664;2022-10-16T05:09:42;4.33;;;2.90;;
13085;SDS011;6609;49.882;8.664;2022-10-16T05:12:08;4.73;;;2.70;;
13085;SDS011;6609;49.882;8.664;2022-10-16T05:14:35;6.20;;;3.43;;
13085;SDS011;6609;49.882;8.664;2022-10-16T05:17:02;3.10;;;2.50;;
13085;SDS011;6609;49.882;8.664;2022-10-16T05:19:29;6.27;;;2.83;;
13085;SDS011;6609;49.882;8.664;2022-10-16T05:21:56;5.13;;;2.70;;
13085;SDS011;6609;49.882;8.664;2022-10-16T05:24:24;3.87;;;2.50;;
13085;SDS011;6609;49.882;8.664;2022-10-16T05:26:51;6.57;;;2.83;;
13085;SDS011;6609;49.882;8.664;2022-10-16T05:29:18;5.93;;;3.00;;
13085;SDS011;6609;49.882;8.664;2022-10-16T05:31:45;5.27;;;2.57;;
13085;SDS011;6609;49.882;8.664;2022-10-16T05:34:12;4.70;;;2.80;;
13085;SDS011;6609;49.882;8.664;2022-10-16T05:36:39;6.07;;;3.30;;
13085;SDS011;6609;49.882;8.664;2022-10-16T05:39:06;4.10;;;2.60;;
13085;SDS011;6609;49.882;8.664;2022-10-16T05:41:34;4.87;;;2.93;;
13085;SDS011;6609;49.882;8.664;2022-10-16T05:44:03;7.23;;;2.33;;
13085;SDS011;6609;49.882;8.664;2022-10-16T05:46:31;4.23;;;2.60;;
13085;SDS011;6609;49.882;8.664;2022-10-16T05:48:58;5.10;;;2.70;;
13085;SDS011;6609;49.882;8.664;2022-10-16T05:51:25;6.83;;;3.20;;
13085;SDS011;6609;49.882;8.664;2022-10-16T05:53:52;9.13;;;3.10;;
13085;SDS011;6609;49.882;8.664;2022-10-16T05:56:19;6.23;;;3.33;;
13085;SDS011;6609;49.882;8.664;2022-10-16T05:58:47;6.83;;;2.80;;
13085;SDS011;6609;49.882;8.664;2022-10-16T06:01:15;8.13;;;2.67;;
13085;SDS011;6609;49.882;8.664;2022-10-16T06:03:43;7.17;;;2.87;;
13085;SDS011;6609;49.882;8.664;2022-10-16T06:06:10;6.33;;;3.00;;
13085;SDS011;6609;49.882;8.664;2022-10-16T06:08:38;5.70;;;3.07;;
13085;SDS011;6609;49.882;8.664;2022-10-16T06:11:06;9.27;;;2.90;;
13085;SDS011;6609;49.882;8.664;2022-10-16T06:13:34;8.43;;;3.03;;
13085;SDS011;6609;49.882;8.664;2022-10-16T06:16:03;9.13;;;2.80;;
13085;SDS011;6609;49.882;8.664;2022-10-16T06:18:30;7.13;;;3.43;;
13085;SDS011;6609;49.882;8.664;2022-10-16T06:20:57;4.97;;;3.47;;
13085;SDS011;6609;49.882;8.664;2022-10-16T06:23:24;4.90;;;2.73;;
13085;SDS011;6609;49.882;8.664;2022-10-16T06:25:51;8.23;;;3.37;;
13085;SDS011;6609;49.882;8.664;2022-10-16T06:28:18;6.17;;;3.00;;
13085;SDS011;6609;49.882;8.664;2022-10-16T06:30:45;6.43;;;3.00;;
13085;SDS011;6609;49.882;8.664;2022-10-16T06:33:13;8.57;;;2.70;;
13085;SDS011;6609;49.882;8.664;2022-10-16T06:35:40;8.40;;;2.77;;
13085;SDS011;6609;49.882;8.664;2022-10-16T06:38:07;7.97;;;2.50;;
13085;SDS011;6609;49.882;8.664;2022-10-16T06:40:33;3.47;;;2.40;;
13085;SDS011;6609;49.882;8.664;2022-10-16T06:43:00;7.67;;;2.63;;
13085;SDS011;6609;49.882;8.664;2022-10-16T06:45:27;6.03;;;2.97;;
13085;SDS011;6609;49.882;8.664;2022-10-16T06:47:54;7.73;;;3.67;;
13085;SDS011;6609;49.882;8.664;2022-10-16T06:50:22;7.43;;;3.90;;
13085;SDS011;6609;49.882;8.664;2022-10-16T06:52:48;7.57;;;3.73;;
13085;SDS011;6609;49.882;8.664;2022-10-16T06:55:15;8.70;;;3.53;;
13085;SDS011;6609;49.882;8.664;2022-10-16T06:57:43;7.90;;;3.50;;
13085;SDS011;6609;49.882;8.664;2022-10-16T07:00:09;7.27;;;3.50;;
13085;SDS011;6609;49.882;8.664;2022-10-16T07:02:37;4.23;;;3.33;;
13085;SDS011;6609;49.882;8.664;2022-10-16T07:05:04;4.70;;;3.40;;
13085;SDS011;6609;49.882;8.664;2022-10-16T07:07:32;4.17;;;3.33;;
13085;SDS011;6609;49.882;8.664;2022-10-16T07:09:59;3.50;;;2.77;;
13085;SDS011;6609;49.882;8.664;2022-10-16T07:12:25;6.17;;;2.87;;
13085;SDS011;6609;49.882;8.664;2022-10-16T07:14:52;8.60;;;2.97;;
13085;SDS011;6609;49.882;8.664;2022-10-16T07:17:20;9.63;;;2.40;;
13085;SDS011;6609;49.882;8.664;2022-10-16T07:19:47;2.67;;;2.33;;
13085;SDS011;6609;49.882;8.664;2022-10-16T07:22:14;4.93;;;2.40;;
13085;SDS011;6609;49.882;8.664;2022-10-16T07:24:42;5.87;;;2.20;;
13085;SDS011;6609;49.882;8.664;2022-10-16T07:27:09;5.47;;;2.13;;
13085;SDS011;6609;49.882;8.664;2022-10-16T07:29:36;5.27;;;2.50;;
13085;SDS011;6609;49.882;8.664;2022-10-16T07:32:03;6.13;;;2.63;;
13085;SDS011;6609;49.882;8.664;2022-10-16T07:34:30;4.30;;;2.40;;
13085;SDS011;6609;49.882;8.664;2022-10-16T07:36:57;4.73;;;2.67;;
13085;SDS011;6609;49.882;8.664;2022-10-16T07:39:24;5.30;;;1.90;;
13085;SDS011;6609;49.882;8.664;2022-10-16T07:41:52;3.47;;;1.80;;
13085;SDS011;6609;49.882;8.664;2022-10-16T07:44:19;7.10;;;2.30;;
13085;SDS011;6609;49.882;8.664;2022-10-16T07:46:46;5.73;;;2.10;;
13085;SDS011;6609;49.882;8.664;2022-10-16T07:49:12;5.27;;;2.00;;
13085;SDS011;6609;49.882;8.664;2022-10-16T07:51:39;5.23;;;2.00;;
13085;SDS011;6609;49.882;8.664;2022-10-16T07:54:07;4.03;;;1.93;;
13085;SDS011;6609;49.882;8.664;2022-10-16T07:56:34;3.03;;;1.90;;
13085;SDS011;6609;49.882;8.664;2022-10-16T07:59:02;4.63;;;1.70;;
13085;SDS011;6609;49.882;8.664;2022-10-16T08:01:29;3.07;;;1.93;;
13085;SDS011;6609;49.882;8.664;2022-10-16T08:03:56;5.00;;;1.83;;
13085;SDS011;6609;49.882;8.664;2022-10-16T08:06:23;3.97;;;1.67;;
13085;SDS011;6609;49.882;8.664;2022-10-16T08:08:49;9.50;;;1.60;;
13085;SDS011;6609;49.882;8.664;2022-10-16T08:11:16;2.97;;;1.60;;
13085;SDS011;6609;49.882;8.664;2022-10-16T08:13:43;2.23;;;1.50;;
13085;SDS011;6609;49.882;8.664;2022-10-16T08:16:11;4.30;;;2.07;;
13085;SDS011;6609;49.882;8.664;2022-10-16T08:18:39;6.37;;;1.90;;
13085;SDS011;6609;49.882;8.664;2022-10-16T08:21:06;5.63;;;1.70;;
13085;SDS011;6609;49.882;8.664;2022-10-16T08:23:36;6.27;;;1.77;;
13085;SDS011;6609;49.882;8.664;2022-10-16T08:26:03;2.43;;;1.80;;
13085;SDS011;6609;49.882;8.664;2022-10-16T08:28:31;2.07;;;1.50;;
13085;SDS011;6609;49.882;8.664;2022-10-16T08:31:04;3.97;;;1.93;;
13085;SDS011;6609;49.882;8.664;2022-10-16T08:33:33;5.50;;;2.20;;
13085;SDS011;6609;49.882;8.664;2022-10-16T08:36:00;8.60;;;2.03;;
13085;SDS011;6609;49.882;8.664;2022-10-16T08:38:27;2.93;;;2.13;;
13085;SDS011;6609;49.882;8.664;2022-10-16T08:40:54;3.67;;;3.13;;
13085;SDS011;6609;49.882;8.664;2022-10-16T08:43:32;8.70;;;4.03;;
13085;SDS011;6609;49.882;8.664;2022-10-16T08:46:24;6.23;;;3.40;;
13085;SDS011;6609;49.882;8.664;2022-10-16T08:49:06;5.67;;;2.83;;
13085;SDS011;6609;49.882;8.664;2022-10-16T08:51:38;6.37;;;2.73;;
13085;SDS011;6609;49.882;8.664;2022-10-16T08:54:06;4.00;;;2.37;;
13085;SDS011;6609;49.882;8.664;2022-10-16T08:56:37;4.77;;;1.97;;
13085;SDS011;6609;49.882;8.664;2022-10-16T08:59:04;4.57;;;2.10;;
13085;SDS011;6609;49.882;8.664;2022-10-16T09:01:37;2.43;;;1.90;;
13085;SDS011;6609;49.882;8.664;2022-10-16T09:07:08;3.60;;;2.37;;
13085;SDS011;6609;49.882;8.664;2022-10-16T09:09:46;4.00;;;2.10;;
13085;SDS011;6609;49.882;8.664;2022-10-16T09:12:26;3.60;;;1.87;;
13085;SDS011;6609;49.882;8.664;2022-10-16T09:15:02;6.57;;;2.00;;
13085;SDS011;6609;49.882;8.664;2022-10-16T09:17:42;8.97;;;2.10;;
13085;SDS011;6609;49.882;8.664;2022-10-16T09:20:19;5.13;;;2.30;;
13085;SDS011;6609;49.882;8.664;2022-10-16T09:22:54;5.00;;;2.07;;
13085;SDS011;6609;49.882;8.664;2022-10-16T09:25:26;2.13;;;1.73;;
13085;SDS011;6609;49.882;8.664;2022-10-16T09:27:53;4.17;;;2.00;;
13085;SDS011;6609;49.882;8.664;2022-10-16T09:30:20;4.83;;;1.93;;
13085;SDS011;6609;49.882;8.664;2022-10-16T09:32:50;3.50;;;2.23;;
13085;SDS011;6609;49.882;8.664;2022-10-16T09:35:19;2.80;;;1.80;;
13085;SDS011;6609;49.882;8.664;2022-10-16T09:37:49;3.50;;;1.83;;
13085;SDS011;6609;49.882;8.664;2022-10-16T09:40:25;9.30;;;2.30;;
13085;SDS011;6609;49.882;8.664;2022-10-16T09:42:56;3.43;;;1.60;;
13085;SDS011;6609;49.882;8.664;2022-10-16T09:45:27;3.47;;;1.80;;
13085;SDS011;6609;49.882;8.664;2022-10-16T09:47:54;3.23;;;2.00;;
13085;SDS011;6609;49.882;8.664;2022-10-16T09:50:22;2.77;;;1.80;;
13085;SDS011;6609;49.882;8.664;2022-10-16T09:53:01;6.10;;;1.87;;
13085;SDS011;6609;49.882;8.664;2022-10-16T09:55:32;2.70;;;1.70;;
13085;SDS011;6609;49.882;8.664;2022-10-16T09:57:58;3.83;;;1.70;;
13085;SDS011;6609;49.882;8.664;2022-10-16T10:00:25;1.83;;;1.43;;
13085;SDS011;6609;49.882;8.664;2022-10-16T10:02:52;1.60;;;1.40;;
13085;SDS011;6609;49.882;8.664;2022-10-16T10:05:21;2.23;;;1.50;;
13085;SDS011;6609;49.882;8.664;2022-10-16T10:07:53;1.93;;;1.30;;
13085;SDS011;6609;49.882;8.664;2022-10-16T10:10:22;2.73;;;1.40;;
13085;SDS011;6609;49.882;8.664;2022-10-16T10:12:51;3.33;;;1.37;;
13085;SDS011;6609;49.882;8.664;2022-10-16T10:15:19;2.37;;;1.20;;
13085;SDS011;6609;49.882;8.664;2022-10-16T10:17:47;2.70;;;1.60;;
13085;SDS011;6609;49.882;8.664;2022-10-16T10:20:21;1.37;;;1.20;;
13085;SDS011;6609;49.882;8.664;2022-10-16T10:22:50;3.83;;;1.47;;
13085;SDS011;6609;49.882;8.664;2022-10-16T10:25:29;3.17;;;1.30;;
13085;SDS011;6609;49.882;8.664;2022-10-16T10:28:09;2.43;;;1.50;;
13085;SDS011;6609;49.882;8.664;2022-10-16T10:31:01;2.43;;;1.40;;
13085;SDS011;6609;49.882;8.664;2022-10-16T10:33:36;2.73;;;1.60;;
13085;SDS011;6609;49.882;8.664;2022-10-16T10:36:11;1.70;;;1.30;;
13085;SDS011;6609;49.882;8.664;2022-10-16T10:38:45;1.33;;;1.10;;
13085;SDS011;6609;49.882;8.664;2022-10-16T10:44:19;1.87;;;1.20;;
13085;SDS011;6609;49.882;8.664;2022-10-16T10:46:54;2.47;;;1.30;;
13085;SDS011;6609;49.882;8.664;2022-10-16T10:49:27;5.57;;;1.43;;
13085;SDS011;6609;49.882;8.664;2022-10-16T10:52:13;1.43;;;1.20;;
13085;SDS011;6609;49.882;8.664;2022-10-16T10:55:06;2.10;;;1.30;;
13085;SDS011;6609;49.882;8.664;2022-10-16T10:57:41;1.77;;;1.20;;
13085;SDS011;6609;49.882;8.664;2022-10-16T11:00:25;3.17;;;1.30;;
13085;SDS011;6609;49.882;8.664;2022-10-16T11:02:58;2.80;;;1.20;;
13085;SDS011;6609;49.882;8.664;2022-10-16T11:05:40;1.80;;;1.07;;
13085;SDS011;6609;49.882;8.664;2022-10-16T11:08:10;1.83;;;1.50;;
13085;SDS011;6609;49.882;8.664;2022-10-16T11:10:46;3.07;;;1.63;;
13085;SDS011;6609;49.882;8.664;2022-10-16T11:13:21;3.30;;;1.30;;
13085;SDS011;6609;49.882;8.664;2022-10-16T11:15:57;3.37;;;1.73;;
13085;SDS011;6609;49.882;8.664;2022-10-16T11:18:27;3.60;;;1.80;;
13085;SDS011;6609;49.882;8.664;2022-10-16T11:21:00;4.20;;;1.40;;
13085;SDS011;6609;49.882;8.664;2022-10-16T11:23:33;1.87;;;1.43;;
13085;SDS011;6609;49.882;8.664;2022-10-16T11:26:08;3.73;;;1.90;;
13085;SDS011;6609;49.882;8.664;2022-10-16T11:28:39;2.53;;;1.50;;
13085;SDS011;6609;49.882;8.664;2022-10-16T11:31:14;2.20;;;1.50;;
13085;SDS011;6609;49.882;8.664;2022-10-16T11:33:47;2.20;;;1.40;;
13085;SDS011;6609;49.882;8.664;2022-10-16T11:36:22;5.43;;;1.90;;
13085;SDS011;6609;49.882;8.664;2022-10-16T11:38:55;2.87;;;1.50;;
13085;SDS011;6609;49.882;8.664;2022-10-16T11:41:27;5.50;;;1.80;;
13085;SDS011;6609;49.882;8.664;2022-10-16T11:44:02;2.37;;;1.40;;
13085;SDS011;6609;49.882;8.664;2022-10-16T11:46:42;1.67;;;1.37;;
13085;SDS011;6609;49.882;8.664;2022-10-16T11:49:15;1.53;;;1.10;;
13085;SDS011;6609;49.882;8.664;2022-10-16T11:51:47;3.50;;;1.17;;
13085;SDS011;6609;49.882;8.664;2022-10-16T11:54:20;1.37;;;1.03;;
13085;SDS011;6609;49.882;8.664;2022-10-16T11:56:53;1.57;;;1.37;;
13085;SDS011;6609;49.882;8.664;2022-10-16T11:59:24;1.77;;;1.13;;
13085;SDS011;6609;49.882;8.664;2022-10-16T12:01:59;2.80;;;1.07;;
13085;SDS011;6609;49.882;8.664;2022-10-16T12:04:43;1.40;;;1.13;;
13085;SDS011;6609;49.882;8.664;2022-10-16T12:07:15;1.57;;;1.27;;
13085;SDS011;6609;49.882;8.664;2022-10-16T12:09:45;1.53;;;1.03;;
13085;SDS011;6609;49.882;8.664;2022-10-16T12:12:24;5.50;;;1.40;;
13085;SDS011;6609;49.882;8.664;2022-10-16T12:14:59;4.30;;;1.47;;
13085;SDS011;6609;49.882;8.664;2022-10-16T12:17:33;1.67;;;1.20;;
13085;SDS011;6609;49.882;8.664;2022-10-16T12:22:48;3.93;;;1.57;;
13085;SDS011;6609;49.882;8.664;2022-10-16T12:25:20;1.53;;;1.33;;
13085;SDS011;6609;49.882;8.664;2022-10-16T12:27:53;2.07;;;1.57;;
13085;SDS011;6609;49.882;8.664;2022-10-16T12:30:22;2.03;;;1.40;;
13085;SDS011;6609;49.882;8.664;2022-10-16T12:32:55;3.17;;;1.50;;
13085;SDS011;6609;49.882;8.664;2022-10-16T12:35:24;2.93;;;1.33;;
13085;SDS011;6609;49.882;8.664;2022-10-16T12:37:53;1.70;;;1.60;;
13085;SDS011;6609;49.882;8.664;2022-10-16T12:40:25;2.67;;;1.40;;
13085;SDS011;6609;49.882;8.664;2022-10-16T12:42:54;2.37;;;1.70;;
13085;SDS011;6609;49.882;8.664;2022-10-16T12:45:26;2.07;;;1.60;;
13085;SDS011;6609;49.882;8.664;2022-10-16T12:47:55;4.63;;;1.67;;
13085;SDS011;6609;49.882;8.664;2022-10-16T12:50:28;1.77;;;1.50;;
13085;SDS011;6609;49.882;8.664;2022-10-16T12:52:58;1.80;;;1.57;;
13085;SDS011;6609;49.882;8.664;2022-10-16T12:55:26;1.50;;;1.40;;
13085;SDS011;6609;49.882;8.664;2022-10-16T12:57:58;3.23;;;1.47;;
13085;SDS011;6609;49.882;8.664;2022-10-16T13:00:36;2.47;;;1.60;;
13085;SDS011;6609;49.882;8.664;2022-10-16T13:03:22;3.10;;;1.87;;
13085;SDS011;6609;49.882;8.664;2022-10-16T13:06:06;6.10;;;1.87;;
13085;SDS011;6609;49.882;8.664;2022-10-16T13:08:44;2.50;;;1.67;;
13085;SDS011;6609;49.882;8.664;2022-10-16T13:11:41;5.17;;;1.80;;
13085;SDS011;6609;49.882;8.664;2022-10-16T13:14:25;4.37;;;1.97;;
13085;SDS011;6609;49.882;8.664;2022-10-16T13:17:06;3.50;;;1.80;;
13085;SDS011;6609;49.882;8.664;2022-10-16T13:19:42;2.90;;;1.60;;
13085;SDS011;6609;49.882;8.664;2022-10-16T13:22:17;2.17;;;1.90;;
13085;SDS011;6609;49.882;8.664;2022-10-16T13:24:53;4.30;;;1.90;;
13085;SDS011;6609;49.882;8.664;2022-10-16T13:27:30;3.10;;;1.77;;
13085;SDS011;6609;49.882;8.664;2022-10-16T13:30:10;3.97;;;2.07;;
13085;SDS011;6609;49.882;8.664;2022-10-16T13:32:43;2.40;;;2.07;;
13085;SDS011;6609;49.882;8.664;2022-10-16T13:35:20;2.97;;;2.13;;
13085;SDS011;6609;49.882;8.664;2022-10-16T13:37:48;7.43;;;2.17;;
13085;SDS011;6609;49.882;8.664;2022-10-16T13:40:19;4.40;;;2.13;;
13085;SDS011;6609;49.882;8.664;2022-10-16T13:42:48;3.23;;;2.07;;
13085;SDS011;6609;49.882;8.664;2022-10-16T13:45:19;3.20;;;1.77;;
13085;SDS011;6609;49.882;8.664;2022-10-16T13:47:47;3.20;;;1.80;;
13085;SDS011;6609;49.882;8.664;2022-10-16T13:50:15;2.20;;;1.60;;
13085;SDS011;6609;49.882;8.664;2022-10-16T13:52:44;3.70;;;1.90;;
13085;SDS011;6609;49.882;8.664;2022-10-16T13:55:11;6.10;;;3.10;;
13085;SDS011;6609;49.882;8.664;2022-10-16T13:57:38;5.33;;;2.60;;
13085;SDS011;6609;49.882;8.664;2022-10-16T14:00:17;5.23;;;2.67;;
13085;SDS011;6609;49.882;8.664;2022-10-16T14:02:44;4.17;;;3.03;;
13085;SDS011;6609;49.882;8.664;2022-10-16T14:05:16;9.53;;;7.20;;
13085;SDS011;6609;49.882;8.664;2022-10-16T14:07:47;8.20;;;6.90;;
13085;SDS011;6609;49.882;8.664;2022-10-16T14:10:20;15.87;;;12.00;;
13085;SDS011;6609;49.882;8.664;2022-10-16T14:12:59;11.53;;;6.50;;
13085;SDS011;6609;49.882;8.664;2022-10-16T14:15:29;18.13;;;9.73;;
13085;SDS011;6609;49.882;8.664;2022-10-16T14:17:57;10.50;;;5.93;;
13085;SDS011;6609;49.882;8.664;2022-10-16T14:20:26;9.90;;;5.23;;
13085;SDS011;6609;49.882;8.664;2022-10-16T14:22:59;10.40;;;4.10;;
13085;SDS011;6609;49.882;8.664;2022-10-16T14:25:28;8.90;;;3.00;;
13085;SDS011;6609;49.882;8.664;2022-10-16T14:27:57;5.97;;;2.60;;
13085;SDS011;6609;49.882;8.664;2022-10-16T14:30:24;9.77;;;2.60;;
13085;SDS011;6609;49.882;8.664;2022-10-16T14:32:55;3.77;;;2.00;;
13085;SDS011;6609;49.882;8.664;2022-10-16T14:35:24;7.83;;;2.70;;
13085;SDS011;6609;49.882;8.664;2022-10-16T14:37:51;5.40;;;2.07;;
13085;SDS011;6609;49.882;8.664;2022-10-16T14:40:20;7.93;;;2.07;;
13085;SDS011;6609;49.882;8.664;2022-10-16T14:42:47;5.43;;;2.40;;
13085;SDS011;6609;49.882;8.664;2022-10-16T14:45:15;7.60;;;1.90;;
13085;SDS011;6609;49.882;8.664;2022-10-16T14:47:49;3.00;;;1.70;;
13085;SDS011;6609;49.882;8.664;2022-10-16T14:50:18;4.30;;;2.10;;
13085;SDS011;6609;49.882;8.664;2022-10-16T14:52:45;7.07;;;2.10;;
13085;SDS011;6609;49.882;8.664;2022-10-16T14:55:12;3.77;;;1.63;;
13085;SDS011;6609;49.882;8.664;2022-10-16T14:57:40;3.23;;;1.63;;
13085;SDS011;6609;49.882;8.664;2022-10-16T15:00:10;4.83;;;2.07;;
13085;SDS011;6609;49.882;8.664;2022-10-16T15:02:40;3.17;;;1.73;;
13085;SDS011;6609;49.882;8.664;2022-10-16T15:05:10;2.43;;;1.77;;
13085;SDS011;6609;49.882;8.664;2022-10-16T15:07:39;3.53;;;2.17;;
13085;SDS011;6609;49.882;8.664;2022-10-16T15:10:07;3.10;;;1.90;;
13085;SDS011;6609;49.882;8.664;2022-10-16T15:12:34;6.30;;;2.27;;
13085;SDS011;6609;49.882;8.664;2022-10-16T15:15:05;3.73;;;2.67;;
13085;SDS011;6609;49.882;8.664;2022-10-16T15:17:37;4.63;;;2.47;;
13085;SDS011;6609;49.882;8.664;2022-10-16T15:20:04;4.87;;;2.37;;
13085;SDS011;6609;49.882;8.664;2022-10-16T15:22:31;3.33;;;2.40;;
13085;SDS011;6609;49.882;8.664;2022-10-16T15:24:58;3.97;;;2.10;;
13085;SDS011;6609;49.882;8.664;2022-10-16T15:27:25;3.03;;;2.40;;